createdAt,value
2018-03-27T00:00:31.636Z,16.98
2018-03-27T00:02:59.141Z,17.45
2018-03-27T00:05:26.650Z,17.48
2018-03-27T00:07:54.159Z,17.23
2018-03-27T00:10:21.665Z,17.42
2018-03-27T00:12:49.168Z,17.92
2018-03-27T00:15:16.682Z,17.12
2018-03-27T00:17:44.216Z,17.83
2018-03-27T00:20:12.147Z,17.50
2018-03-27T00:22:39.650Z,17.45
2018-03-27T00:25:07.156Z,18.10
2018-03-27T00:27:46.432Z,17.98
2018-03-27T00:30:26.112Z,17.40
2018-03-27T00:33:05.506Z,17.50
2018-03-27T00:35:45.088Z,18.77
2018-03-27T00:38:24.423Z,16.85
2018-03-27T00:40:51.439Z,17.00
2018-03-27T00:43:18.934Z,18.15
2018-03-27T00:45:46.438Z,17.20
2018-03-27T00:48:14.339Z,17.05
2018-03-27T00:50:41.840Z,17.37
2018-03-27T00:53:09.351Z,18.87
2018-03-27T00:55:36.865Z,17.62
2018-03-27T00:58:04.367Z,15.30
2018-03-27T01:00:31.867Z,16.90
2018-03-27T01:02:59.362Z,17.90
2018-03-27T01:05:26.858Z,17.52
2018-03-27T01:07:54.361Z,18.73
2018-03-27T01:10:22.255Z,18.62
2018-03-27T01:12:49.771Z,17.40
2018-03-27T01:15:17.676Z,17.95
2018-03-27T01:17:46.422Z,18.37
2018-03-27T01:20:13.943Z,17.27
2018-03-27T01:22:41.460Z,17.65
2018-03-27T01:25:09.532Z,18.48
2018-03-27T01:27:38.925Z,18.33
2018-03-27T01:30:06.476Z,19.10
2018-03-27T01:32:33.989Z,18.45
2018-03-27T01:35:01.488Z,19.45
2018-03-27T01:37:28.992Z,18.85
2018-03-27T01:39:56.497Z,19.35
2018-03-27T01:42:24.015Z,20.50
2018-03-27T01:44:51.514Z,19.73
2018-03-27T01:47:19.027Z,18.65
2018-03-27T01:49:46.511Z,20.90
2018-03-27T01:52:14.028Z,19.48
2018-03-27T01:54:41.527Z,19.20
2018-03-27T01:57:09.057Z,19.25
2018-03-27T01:59:36.593Z,19.80
2018-03-27T02:02:04.108Z,19.80
2018-03-27T02:04:31.767Z,19.90
2018-03-27T02:06:59.263Z,20.40
2018-03-27T02:09:26.761Z,20.35
2018-03-27T02:12:00.089Z,19.98
2018-03-27T02:14:33.589Z,18.75
2018-03-27T02:17:07.307Z,20.80
2018-03-27T02:19:40.976Z,20.77
2018-03-27T02:22:08.487Z,20.55
2018-03-27T02:24:37.965Z,21.08
2018-03-27T02:27:05.859Z,19.27
2018-03-27T02:29:33.361Z,20.85
2018-03-27T02:32:00.853Z,19.98
2018-03-27T02:34:28.372Z,19.52
2018-03-27T02:36:55.871Z,21.80
2018-03-27T02:39:23.770Z,20.30
2018-03-27T02:41:51.276Z,20.40
2018-03-27T02:44:19.180Z,23.30
2018-03-27T02:46:46.675Z,21.10
2018-03-27T02:49:14.184Z,21.45
2018-03-27T02:51:41.697Z,22.42
2018-03-27T02:54:09.199Z,22.67
2018-03-27T02:56:36.720Z,23.12
2018-03-27T02:59:04.217Z,21.25
2018-03-27T03:01:31.782Z,21.75
2018-03-27T03:03:59.275Z,22.80
2018-03-27T03:06:26.778Z,22.37
2018-03-27T03:08:54.708Z,22.35
2018-03-27T03:11:22.215Z,21.27
2018-03-27T03:13:49.727Z,22.92
2018-03-27T03:16:17.239Z,22.50
2018-03-27T03:18:44.736Z,21.00
2018-03-27T03:21:12.234Z,22.02
2018-03-27T03:23:40.167Z,24.25
2018-03-27T03:26:07.668Z,25.02
2018-03-27T03:28:35.185Z,21.75
2018-03-27T03:31:02.693Z,21.40
2018-03-27T03:33:30.200Z,23.23
2018-03-27T03:35:57.714Z,23.58
2018-03-27T03:38:25.220Z,23.10
2018-03-27T03:40:52.731Z,23.30
2018-03-27T03:43:20.238Z,23.23
2018-03-27T03:45:47.744Z,23.80
2018-03-27T03:48:15.266Z,24.83
2018-03-27T03:50:43.216Z,23.33
2018-03-27T03:53:10.720Z,23.80
2018-03-27T03:55:38.214Z,21.92
2018-03-27T03:58:05.714Z,23.27
2018-03-27T04:00:33.653Z,22.27
2018-03-27T04:03:01.228Z,23.90
2018-03-27T04:05:28.775Z,23.90
2018-03-27T04:07:56.291Z,21.80
2018-03-27T04:10:23.827Z,24.10
2018-03-27T04:12:51.369Z,24.37
2018-03-27T04:15:19.360Z,26.12
2018-03-27T04:17:46.895Z,26.52
2018-03-27T04:20:14.509Z,24.58
2018-03-27T04:22:42.072Z,23.77
2018-03-27T04:25:09.574Z,25.65
2018-03-27T04:27:37.476Z,25.37
2018-03-27T04:30:05.003Z,23.58
2018-03-27T04:32:32.536Z,24.52
2018-03-27T04:35:00.028Z,24.60
2018-03-27T04:37:27.523Z,23.70
2018-03-27T04:39:55.020Z,23.48
2018-03-27T04:42:22.546Z,24.08
2018-03-27T04:44:50.037Z,25.33
2018-03-27T04:47:17.549Z,24.40
2018-03-27T04:49:45.065Z,24.33
2018-03-27T04:52:12.936Z,25.67
2018-03-27T04:54:40.441Z,25.10
2018-03-27T04:57:07.970Z,25.48
2018-03-27T04:59:35.555Z,24.90
2018-03-27T05:02:03.051Z,26.45
2018-03-27T05:04:30.954Z,25.70
2018-03-27T05:06:58.461Z,25.12
2018-03-27T05:09:25.967Z,25.83
2018-03-27T05:11:53.471Z,24.52
2018-03-27T05:14:20.993Z,23.75
2018-03-27T05:16:48.498Z,26.58
2018-03-27T05:19:16.009Z,25.88
2018-03-27T05:21:43.527Z,25.60
2018-03-27T05:24:11.422Z,24.58
2018-03-27T05:26:38.926Z,24.85
2018-03-27T05:29:06.486Z,25.52
2018-03-27T05:31:33.994Z,26.70
2018-03-27T05:34:01.523Z,26.70
2018-03-27T05:36:29.415Z,25.42
2018-03-27T05:38:56.938Z,25.52
2018-03-27T05:41:24.836Z,25.60
2018-03-27T05:43:52.337Z,26.10
2018-03-27T05:46:19.838Z,25.08
2018-03-27T05:48:47.726Z,24.12
2018-03-27T05:51:15.213Z,26.00
2018-03-27T05:53:42.715Z,26.92
2018-03-27T05:56:10.615Z,27.05
2018-03-27T05:58:38.129Z,27.92
2018-03-27T06:01:06.031Z,27.25
2018-03-27T06:03:33.533Z,24.48
2018-03-27T06:06:01.051Z,25.67
2018-03-27T06:08:28.556Z,27.42
2018-03-27T06:10:56.071Z,27.40
2018-03-27T06:13:23.579Z,27.83
2018-03-27T06:15:51.475Z,27.58
2018-03-27T06:18:18.988Z,28.27
2018-03-27T06:20:46.496Z,28.15
2018-03-27T06:23:14.009Z,28.40
2018-03-27T06:25:41.893Z,27.67
2018-03-27T06:28:09.805Z,26.50
2018-03-27T06:30:37.304Z,26.12
2018-03-27T06:33:05.196Z,24.17
2018-03-27T06:35:32.728Z,25.15
2018-03-27T06:38:00.623Z,25.70
2018-03-27T06:40:28.128Z,26.37
2018-03-27T06:42:55.642Z,25.88
2018-03-27T06:45:23.172Z,26.77
2018-03-27T06:47:51.094Z,25.42
2018-03-27T06:50:18.594Z,26.33
2018-03-27T06:52:46.575Z,25.60
2018-03-27T06:55:14.139Z,26.55
2018-03-27T06:57:41.656Z,26.08
2018-03-27T07:00:09.196Z,24.52
2018-03-27T07:02:36.700Z,26.35
2018-03-27T07:05:04.265Z,26.03
2018-03-27T07:07:31.823Z,25.15
2018-03-27T07:09:59.342Z,24.65
2018-03-27T07:12:26.931Z,25.47
2018-03-27T07:14:54.929Z,25.23
2018-03-27T07:17:22.478Z,26.23
2018-03-27T07:19:50.375Z,23.52
2018-03-27T07:22:18.023Z,25.33
2018-03-27T07:24:45.593Z,24.43
2018-03-27T07:27:13.184Z,22.70
2018-03-27T07:29:40.691Z,13.98
2018-03-27T07:32:08.292Z,11.23
2018-03-27T07:34:36.016Z,21.55
2018-03-27T07:37:03.539Z,21.42
2018-03-27T07:39:31.435Z,23.92
2018-03-27T07:41:58.947Z,26.58
2018-03-27T07:44:26.439Z,26.23
2018-03-27T07:46:53.937Z,26.60
2018-03-27T07:49:21.450Z,25.08
2018-03-27T07:51:49.341Z,22.30
2018-03-27T07:54:16.855Z,25.65
2018-03-27T07:56:44.342Z,27.73
2018-03-27T07:59:11.867Z,25.43
2018-03-27T08:01:39.361Z,25.67
2018-03-27T08:04:06.855Z,25.30
2018-03-27T08:06:34.356Z,28.10
2018-03-27T08:09:02.256Z,21.90
2018-03-27T08:11:29.786Z,22.67
2018-03-27T08:13:57.670Z,17.93
2018-03-27T08:16:25.162Z,24.50
2018-03-27T08:18:52.659Z,17.27
2018-03-27T08:21:20.563Z,23.00
2018-03-27T08:23:48.042Z,21.27
2018-03-27T08:26:15.532Z,23.83
2018-03-27T08:28:43.431Z,25.53
2018-03-27T08:31:10.927Z,23.73
2018-03-27T08:33:38.436Z,22.73
2018-03-27T08:36:05.931Z,27.77
2018-03-27T08:38:33.410Z,25.43
2018-03-27T08:41:00.913Z,26.90
2018-03-27T08:43:28.451Z,23.43
2018-03-27T08:46:06.156Z,29.50
2018-03-27T08:48:34.067Z,33.30
2018-03-27T08:51:01.581Z,32.67
2018-03-27T08:53:32.365Z,29.90
2018-03-27T08:56:00.700Z,22.17
2018-03-27T08:58:28.198Z,22.63
2018-03-27T09:00:55.687Z,30.33
2018-03-27T09:03:23.195Z,27.40
2018-03-27T09:05:50.690Z,28.67
2018-03-27T09:08:18.191Z,33.80
2018-03-27T09:10:45.679Z,26.73
2018-03-27T09:13:13.188Z,22.23
2018-03-27T09:15:41.093Z,18.43
2018-03-27T09:18:10.447Z,31.43
2018-03-27T09:20:38.358Z,34.67
2018-03-27T09:23:05.863Z,34.87
2018-03-27T09:25:33.403Z,35.53
2018-03-27T09:28:00.899Z,36.67
2018-03-27T09:30:29.778Z,32.73
2018-03-27T09:32:57.663Z,33.27
2018-03-27T09:35:25.187Z,25.40
2018-03-27T09:37:54.931Z,38.57
2018-03-27T09:40:22.430Z,31.90
2018-03-27T09:42:50.572Z,38.67
2018-03-27T09:45:18.076Z,40.97
2018-03-27T09:47:45.559Z,38.50
2018-03-27T09:50:13.451Z,40.27
2018-03-27T09:52:40.943Z,37.67
2018-03-27T09:55:08.453Z,33.83
2018-03-27T09:57:35.984Z,43.93
2018-03-27T10:00:03.470Z,35.53
2018-03-27T10:02:30.979Z,39.13
2018-03-27T10:04:58.479Z,41.87
2018-03-27T10:07:25.990Z,29.33
2018-03-27T10:09:54.625Z,36.73
2018-03-27T10:12:23.193Z,42.53
2018-03-27T10:14:52.145Z,45.37
2018-03-27T10:17:20.934Z,28.73
2018-03-27T10:19:49.826Z,32.70
2018-03-27T10:22:19.276Z,43.80
2018-03-27T10:24:47.307Z,32.93
2018-03-27T10:27:15.673Z,33.20
2018-03-27T10:29:43.168Z,40.67
2018-03-27T10:32:10.658Z,34.60
2018-03-27T10:34:38.171Z,47.60
2018-03-27T10:37:05.663Z,46.57
2018-03-27T10:39:33.167Z,36.97
2018-03-27T10:42:00.659Z,40.23
2018-03-27T10:44:28.573Z,32.13
2018-03-27T10:46:56.071Z,40.43
2018-03-27T10:49:23.997Z,33.83
2018-03-27T10:51:51.519Z,41.87
2018-03-27T10:54:19.042Z,40.90
2018-03-27T10:56:46.560Z,36.70
2018-03-27T10:59:14.059Z,26.60
2018-03-27T11:01:41.579Z,40.20
2018-03-27T11:04:09.078Z,43.87
2018-03-27T11:06:36.582Z,41.63
2018-03-27T11:09:04.082Z,31.63
2018-03-27T11:11:31.599Z,46.00
2018-03-27T11:13:59.095Z,44.70
2018-03-27T11:16:26.645Z,36.30
2018-03-27T11:18:54.148Z,40.40
2018-03-27T11:21:21.656Z,46.00
2018-03-27T11:23:49.162Z,35.77
2018-03-27T11:26:17.058Z,39.57
2018-03-27T11:28:44.569Z,38.93
2018-03-27T11:31:12.463Z,39.57
2018-03-27T11:33:39.967Z,42.87
2018-03-27T11:36:07.480Z,31.67
2018-03-27T11:38:35.040Z,33.13
2018-03-27T11:41:02.561Z,36.63
2018-03-27T11:43:30.051Z,39.20
2018-03-27T11:45:57.569Z,36.30
2018-03-27T11:48:25.150Z,29.83
2018-03-27T11:50:52.608Z,39.77
2018-03-27T11:53:20.496Z,28.43
2018-03-27T11:55:48.003Z,36.07
2018-03-27T11:58:15.503Z,32.23
2018-03-27T12:00:43.019Z,26.50
2018-03-27T12:03:10.531Z,33.33
2018-03-27T12:05:38.080Z,34.03
2018-03-27T12:08:05.584Z,29.13
2018-03-27T12:10:33.084Z,28.40
2018-03-27T12:13:00.979Z,33.67
2018-03-27T12:15:28.488Z,29.97
2018-03-27T12:17:56.375Z,32.07
2018-03-27T12:20:23.887Z,30.57
2018-03-27T12:22:51.378Z,31.67
2018-03-27T12:25:19.277Z,30.40
2018-03-27T12:27:46.802Z,29.83
2018-03-27T12:30:14.689Z,30.17
2018-03-27T12:32:42.179Z,29.73
2018-03-27T12:35:09.693Z,20.37
2018-03-27T12:37:37.208Z,18.57
2018-03-27T12:40:04.767Z,16.83
2018-03-27T12:42:32.319Z,18.97
2018-03-27T12:44:59.823Z,23.90
2018-03-27T12:47:27.720Z,23.50
2018-03-27T12:49:55.224Z,23.20
2018-03-27T12:52:22.717Z,13.83
2018-03-27T12:54:50.264Z,18.23
2018-03-27T12:57:18.600Z,15.67
2018-03-27T12:59:46.112Z,19.40
2018-03-27T13:02:14.073Z,14.30
2018-03-27T13:04:41.608Z,13.13
2018-03-27T13:07:09.504Z,16.10
2018-03-27T13:09:37.068Z,15.80
2018-03-27T13:12:04.572Z,16.13
2018-03-27T13:14:32.073Z,16.27
2018-03-27T13:16:59.564Z,16.50
2018-03-27T13:19:27.083Z,17.47
2018-03-27T13:21:54.639Z,16.17
2018-03-27T13:24:22.192Z,16.13
2018-03-27T13:26:50.138Z,14.83
2018-03-27T13:29:17.632Z,15.30
2018-03-27T13:31:45.131Z,16.40
2018-03-27T13:34:12.635Z,16.90
2018-03-27T13:36:40.551Z,16.83
2018-03-27T13:39:08.068Z,18.43
2018-03-27T13:41:35.559Z,24.70
2018-03-27T13:44:03.050Z,23.60
2018-03-27T13:46:30.572Z,16.63
2018-03-27T13:48:58.106Z,16.63
2018-03-27T13:51:25.611Z,17.97
2018-03-27T13:53:53.128Z,16.10
2018-03-27T13:56:20.623Z,17.40
2018-03-27T13:58:48.138Z,17.33
2018-03-27T14:01:15.648Z,15.47
2018-03-27T14:03:43.159Z,16.70
2018-03-27T14:06:10.664Z,15.63
2018-03-27T14:08:38.174Z,16.10
2018-03-27T14:11:05.694Z,16.43
2018-03-27T14:13:33.598Z,20.77
2018-03-27T14:16:01.092Z,23.97
2018-03-27T14:18:28.604Z,22.97
2018-03-27T14:20:56.107Z,23.13
2018-03-27T14:23:23.616Z,23.20
2018-03-27T14:25:51.140Z,20.13
2018-03-27T14:28:19.046Z,22.30
2018-03-27T14:30:46.623Z,22.57
2018-03-27T14:33:14.119Z,22.43
2018-03-27T14:35:41.620Z,23.23
2018-03-27T14:38:09.155Z,18.93
2018-03-27T14:40:36.627Z,20.30
2018-03-27T14:43:04.120Z,23.27
2018-03-27T14:45:31.616Z,22.03
2018-03-27T14:47:59.524Z,18.30
2018-03-27T14:50:27.077Z,20.67
2018-03-27T14:52:54.594Z,24.73
2018-03-27T14:55:22.505Z,22.53
2018-03-27T14:57:50.022Z,21.57
2018-03-27T15:00:17.913Z,22.03
2018-03-27T15:02:45.431Z,22.43
2018-03-27T15:05:12.971Z,13.80
2018-03-27T15:07:40.463Z,23.20
2018-03-27T15:10:08.393Z,18.77
2018-03-27T15:12:35.947Z,21.97
2018-03-27T15:15:03.467Z,21.57
2018-03-27T15:17:30.966Z,22.43
2018-03-27T15:19:58.480Z,18.73
2018-03-27T15:22:25.994Z,20.07
2018-03-27T15:24:54.641Z,22.40
2018-03-27T15:27:22.213Z,21.60
2018-03-27T15:29:49.716Z,22.33
2018-03-27T15:32:17.639Z,21.43
2018-03-27T15:34:45.135Z,19.53
2018-03-27T15:37:13.042Z,21.17
2018-03-27T15:39:40.554Z,22.37
2018-03-27T15:42:08.059Z,17.30
2018-03-27T15:44:35.569Z,14.33
2018-03-27T15:47:03.106Z,22.57
2018-03-27T15:49:30.608Z,21.07
2018-03-27T15:51:58.506Z,17.70
2018-03-27T15:54:26.023Z,21.40
2018-03-27T15:56:53.931Z,17.70
2018-03-27T15:59:21.457Z,22.47
2018-03-27T16:01:49.362Z,19.47
2018-03-27T16:04:16.895Z,24.53
2018-03-27T16:06:44.447Z,23.07
2018-03-27T16:09:11.978Z,19.30
2018-03-27T16:11:39.479Z,14.73
2018-03-27T16:14:07.051Z,20.73
2018-03-27T16:16:34.656Z,15.17
2018-03-27T16:19:02.620Z,12.67
2018-03-27T16:21:30.560Z,22.80
2018-03-27T16:23:58.047Z,14.57
2018-03-27T16:26:25.539Z,23.87
2018-03-27T16:28:54.097Z,25.77
2018-03-27T16:31:27.047Z,22.93
2018-03-27T16:33:55.284Z,23.33
2018-03-27T16:36:22.774Z,21.07
2018-03-27T16:38:50.344Z,21.67
2018-03-27T16:41:17.832Z,23.83
2018-03-27T16:43:45.730Z,21.60
2018-03-27T16:46:13.226Z,23.50
2018-03-27T16:48:40.720Z,22.20
2018-03-27T16:51:08.614Z,22.83
2018-03-27T16:53:36.102Z,25.07
2018-03-27T16:56:03.648Z,19.43
2018-03-27T16:58:31.115Z,22.00
2018-03-27T17:00:58.661Z,20.93
2018-03-27T17:03:26.160Z,15.00
2018-03-27T17:05:54.092Z,17.07
2018-03-27T17:08:23.607Z,14.70
2018-03-27T17:10:51.111Z,15.57
2018-03-27T17:13:18.805Z,12.80
2018-03-27T17:15:46.351Z,15.17
2018-03-27T17:18:13.860Z,15.53
2018-03-27T17:20:41.535Z,15.57
2018-03-27T17:23:09.181Z,13.53
2018-03-27T17:25:36.792Z,15.13
2018-03-27T17:28:04.441Z,15.37
2018-03-27T17:30:31.992Z,15.07
2018-03-27T17:32:59.498Z,15.90
2018-03-27T17:35:27.018Z,11.43
2018-03-27T17:37:54.513Z,15.87
2018-03-27T17:40:22.015Z,14.03
2018-03-27T17:42:49.976Z,16.17
2018-03-27T17:45:17.894Z,15.23
2018-03-27T17:47:45.408Z,16.17
2018-03-27T17:50:12.953Z,15.37
2018-03-27T17:52:40.854Z,13.83
2018-03-27T17:55:08.352Z,16.90
2018-03-27T17:57:36.350Z,14.70
2018-03-27T18:00:04.487Z,15.07
2018-03-27T18:02:32.040Z,13.13
2018-03-27T18:04:59.571Z,14.17
2018-03-27T18:07:27.072Z,9.93
2018-03-27T18:09:56.594Z,16.60
2018-03-27T18:12:25.562Z,12.43
2018-03-27T18:14:54.814Z,15.87
2018-03-27T18:17:22.562Z,15.70
2018-03-27T18:19:50.452Z,15.87
2018-03-27T18:22:17.942Z,15.87
2018-03-27T18:24:45.497Z,14.13
2018-03-27T18:27:12.991Z,16.13
2018-03-27T18:29:40.906Z,12.80
2018-03-27T18:32:09.645Z,16.60
2018-03-27T18:34:37.193Z,16.50
2018-03-27T18:37:05.106Z,18.23
2018-03-27T18:39:32.596Z,15.90
2018-03-27T18:42:00.104Z,18.80
2018-03-27T18:44:27.611Z,16.43
2018-03-27T18:46:55.101Z,19.33
2018-03-27T18:49:23.042Z,18.00
2018-03-27T18:51:51.829Z,17.00
2018-03-27T18:54:23.052Z,18.50
2018-03-27T18:56:50.666Z,19.20
2018-03-27T18:59:18.188Z,19.67
2018-03-27T19:01:45.684Z,16.63
2018-03-27T19:04:13.194Z,18.40
2018-03-27T19:06:40.682Z,19.57
2018-03-27T19:09:08.804Z,17.87
2018-03-27T19:11:36.311Z,18.73
2018-03-27T19:14:04.212Z,19.47
2018-03-27T19:16:31.843Z,18.50
2018-03-27T19:18:59.368Z,18.87
2018-03-27T19:21:26.889Z,20.93
2018-03-27T19:23:54.392Z,20.90
2018-03-27T19:26:22.799Z,20.30
2018-03-27T19:28:50.798Z,21.87
2018-03-27T19:31:18.283Z,24.10
2018-03-27T19:33:45.862Z,21.47
2018-03-27T19:36:13.363Z,21.37
2018-03-27T19:38:40.872Z,23.37
2018-03-27T19:41:08.362Z,24.60
2018-03-27T19:43:35.879Z,22.90
2018-03-27T19:46:03.387Z,23.23
2018-03-27T19:48:30.907Z,24.77
2018-03-27T19:50:58.427Z,22.80
2018-03-27T19:53:26.908Z,23.07
2018-03-27T19:55:54.419Z,24.40
2018-03-27T19:58:22.331Z,26.23
2018-03-27T20:00:49.860Z,26.33
2018-03-27T20:03:17.369Z,25.40
2018-03-27T20:05:44.864Z,28.57
2018-03-27T20:08:13.879Z,26.33
2018-03-27T20:10:41.381Z,26.07
2018-03-27T20:13:08.908Z,26.73
2018-03-27T20:15:41.704Z,27.07
2018-03-27T20:20:57.244Z,27.63
2018-03-27T20:23:25.147Z,28.90
2018-03-27T20:25:52.655Z,28.90
2018-03-27T20:28:20.192Z,27.80
2018-03-27T20:30:47.738Z,29.80
2018-03-27T20:33:15.229Z,31.30
2018-03-27T20:35:42.744Z,30.57
2018-03-27T20:38:10.289Z,32.47
2018-03-27T20:40:38.712Z,32.17
2018-03-27T20:43:06.223Z,33.13
2018-03-27T20:45:33.720Z,33.50
2018-03-27T20:48:01.780Z,34.00
2018-03-27T20:50:30.426Z,35.57
2018-03-27T20:52:59.028Z,32.97
2018-03-27T20:55:26.531Z,36.20
2018-03-27T20:57:54.039Z,36.27
2018-03-27T21:00:21.542Z,34.70
2018-03-27T21:02:49.040Z,34.83
2018-03-27T21:07:58.619Z,36.63
2018-03-27T21:10:26.128Z,36.90
2018-03-27T21:12:53.738Z,37.73
2018-03-27T21:15:21.184Z,36.87
2018-03-27T21:17:48.671Z,38.30
2018-03-27T21:20:16.253Z,37.60
2018-03-27T21:22:43.752Z,36.87
2018-03-27T21:25:11.261Z,36.70
2018-03-27T21:27:38.840Z,38.33
2018-03-27T21:30:06.817Z,39.83
2018-03-27T21:32:34.391Z,35.27
2018-03-27T21:35:02.294Z,38.93
2018-03-27T21:37:30.000Z,39.47
2018-03-27T21:39:57.701Z,38.87
2018-03-27T21:42:25.222Z,36.43
2018-03-27T21:44:52.951Z,38.67
2018-03-27T21:47:20.508Z,40.03
2018-03-27T21:49:48.119Z,39.23
2018-03-27T21:52:15.607Z,38.50
2018-03-27T21:54:46.452Z,40.47
2018-03-27T21:57:13.987Z,39.67
2018-03-27T21:59:52.694Z,40.97
2018-03-27T22:02:20.764Z,39.27
2018-03-27T22:04:48.328Z,38.70
2018-03-27T22:07:15.860Z,34.73
2018-03-27T22:09:43.382Z,40.80
2018-03-27T22:12:10.891Z,40.07
2018-03-27T22:14:38.664Z,40.47
2018-03-27T22:17:09.790Z,37.27
2018-03-27T22:19:37.303Z,37.87
2018-03-27T22:22:04.835Z,35.90
2018-03-27T22:24:32.332Z,39.73
2018-03-27T22:26:59.870Z,35.47
2018-03-27T22:29:27.401Z,36.93
2018-03-27T22:31:55.560Z,37.33
2018-03-27T22:34:23.072Z,36.50
2018-03-27T22:36:50.599Z,34.93
2018-03-27T22:39:18.112Z,36.83
2018-03-27T22:41:45.619Z,33.90
2018-03-27T22:44:13.273Z,34.10
2018-03-27T22:46:40.958Z,36.20
2018-03-27T22:49:08.613Z,33.20
2018-03-27T22:51:37.778Z,35.57
2018-03-27T22:54:06.426Z,34.57
2018-03-27T22:56:34.324Z,30.37
2018-03-27T22:59:02.102Z,28.73
2018-03-27T23:01:29.916Z,29.60
2018-03-27T23:03:57.441Z,24.80
2018-03-27T23:06:25.207Z,28.50
2018-03-27T23:08:52.743Z,29.30
2018-03-27T23:11:20.264Z,26.80
2018-03-27T23:13:48.165Z,25.53
2018-03-27T23:16:15.875Z,25.10
2018-03-27T23:18:43.409Z,24.40
2018-03-27T23:21:11.063Z,21.23
2018-03-27T23:23:39.687Z,19.97
2018-03-27T23:26:07.230Z,22.13
2018-03-27T23:28:35.300Z,16.67
2018-03-27T23:31:02.820Z,18.03
2018-03-27T23:33:30.344Z,18.50
2018-03-27T23:35:58.245Z,19.63
2018-03-27T23:38:25.815Z,18.50
2018-03-27T23:40:53.359Z,17.80
2018-03-27T23:43:20.864Z,15.80
2018-03-27T23:45:48.351Z,18.53
2018-03-27T23:48:16.252Z,18.23
2018-03-27T23:50:43.743Z,16.53
2018-03-27T23:53:11.285Z,16.70
2018-03-27T23:55:38.760Z,16.47
2018-03-27T23:58:06.276Z,15.50
